sensor_id;sensor_type;location;lat;lon;timestamp;P1;durP1;ratioP1;P2;durP2;ratioP2
20185;SDS011;10252;48.792;8.582;2023-02-01T00:02:45;2.25;;;1.90;;
20185;SDS011;10252;48.792;8.582;2023-02-01T00:07:47;4.45;;;2.30;;
20185;SDS011;10252;48.792;8.582;2023-02-01T00:12:49;3.70;;;1.77;;
20185;SDS011;10252;48.792;8.582;2023-02-01T00:17:53;2.80;;;2.10;;
20185;SDS011;10252;48.792;8.582;2023-02-01T00:22:55;2.53;;;1.70;;
20185;SDS011;10252;48.792;8.582;2023-02-01T00:27:56;1.92;;;1.40;;
20185;SDS011;10252;48.792;8.582;2023-02-01T00:32:59;1.95;;;1.63;;
20185;SDS011;10252;48.792;8.582;2023-02-01T00:38:00;1.70;;;1.42;;
20185;SDS011;10252;48.792;8.582;2023-02-01T00:43:01;2.75;;;1.52;;
20185;SDS011;10252;48.792;8.582;2023-02-01T00:48:02;1.83;;;1.60;;
20185;SDS011;10252;48.792;8.582;2023-02-01T00:53:03;2.90;;;1.40;;
20185;SDS011;10252;48.792;8.582;2023-02-01T00:58:04;3.65;;;2.03;;
20185;SDS011;10252;48.792;8.582;2023-02-01T01:03:09;1.83;;;1.35;;
20185;SDS011;10252;48.792;8.582;2023-02-01T01:08:19;2.08;;;1.50;;
20185;SDS011;10252;48.792;8.582;2023-02-01T01:13:20;2.72;;;1.88;;
20185;SDS011;10252;48.792;8.582;2023-02-01T01:18:21;2.05;;;1.20;;
20185;SDS011;10252;48.792;8.582;2023-02-01T01:23:22;1.83;;;1.50;;
20185;SDS011;10252;48.792;8.582;2023-02-01T01:28:23;2.20;;;1.67;;
20185;SDS011;10252;48.792;8.582;2023-02-01T01:33:24;2.05;;;1.30;;
20185;SDS011;10252;48.792;8.582;2023-02-01T01:38:26;2.88;;;1.75;;
20185;SDS011;10252;48.792;8.582;2023-02-01T01:43:44;2.45;;;1.27;;
20185;SDS011;10252;48.792;8.582;2023-02-01T01:48:53;2.53;;;1.48;;
20185;SDS011;10252;48.792;8.582;2023-02-01T01:54:00;3.72;;;1.33;;
20185;SDS011;10252;48.792;8.582;2023-02-01T01:59:02;2.33;;;1.58;;
20185;SDS011;10252;48.792;8.582;2023-02-01T02:04:03;1.73;;;1.25;;
20185;SDS011;10252;48.792;8.582;2023-02-01T02:09:05;2.70;;;1.25;;
20185;SDS011;10252;48.792;8.582;2023-02-01T02:14:07;2.05;;;1.33;;
20185;SDS011;10252;48.792;8.582;2023-02-01T02:19:26;1.40;;;1.20;;
20185;SDS011;10252;48.792;8.582;2023-02-01T02:29:59;1.08;;;0.98;;
20185;SDS011;10252;48.792;8.582;2023-02-01T02:40:21;1.40;;;1.02;;
20185;SDS011;10252;48.792;8.582;2023-02-01T02:45:37;2.38;;;1.30;;
20185;SDS011;10252;48.792;8.582;2023-02-01T02:51:00;1.02;;;0.93;;
20185;SDS011;10252;48.792;8.582;2023-02-01T02:56:21;2.45;;;1.35;;
20185;SDS011;10252;48.792;8.582;2023-02-01T03:01:43;1.83;;;0.93;;
20185;SDS011;10252;48.792;8.582;2023-02-01T03:07:11;1.23;;;1.08;;
20185;SDS011;10252;48.792;8.582;2023-02-01T03:12:13;1.60;;;1.50;;
20185;SDS011;10252;48.792;8.582;2023-02-01T03:17:35;1.40;;;1.10;;
20185;SDS011;10252;48.792;8.582;2023-02-01T03:22:37;1.48;;;0.90;;
20185;SDS011;10252;48.792;8.582;2023-02-01T03:27:45;2.08;;;1.15;;
20185;SDS011;10252;48.792;8.582;2023-02-01T03:32:50;1.27;;;1.08;;
20185;SDS011;10252;48.792;8.582;2023-02-01T03:38:01;1.38;;;1.15;;
20185;SDS011;10252;48.792;8.582;2023-02-01T03:43:04;2.97;;;1.25;;
20185;SDS011;10252;48.792;8.582;2023-02-01T03:48:07;2.97;;;1.30;;
20185;SDS011;10252;48.792;8.582;2023-02-01T03:53:10;2.08;;;1.20;;
20185;SDS011;10252;48.792;8.582;2023-02-01T03:58:14;1.58;;;1.38;;
20185;SDS011;10252;48.792;8.582;2023-02-01T04:03:16;1.65;;;1.42;;
20185;SDS011;10252;48.792;8.582;2023-02-01T04:08:20;1.20;;;0.95;;
20185;SDS011;10252;48.792;8.582;2023-02-01T04:13:21;2.38;;;1.48;;
20185;SDS011;10252;48.792;8.582;2023-02-01T04:18:22;2.13;;;1.05;;
20185;SDS011;10252;48.792;8.582;2023-02-01T04:23:23;1.45;;;1.20;;
20185;SDS011;10252;48.792;8.582;2023-02-01T04:28:24;1.73;;;1.30;;
20185;SDS011;10252;48.792;8.582;2023-02-01T04:33:25;3.38;;;1.52;;
20185;SDS011;10252;48.792;8.582;2023-02-01T04:38:26;2.60;;;1.48;;
20185;SDS011;10252;48.792;8.582;2023-02-01T04:43:29;3.75;;;1.58;;
20185;SDS011;10252;48.792;8.582;2023-02-01T04:48:30;1.90;;;1.50;;
20185;SDS011;10252;48.792;8.582;2023-02-01T04:53:31;2.17;;;1.50;;
20185;SDS011;10252;48.792;8.582;2023-02-01T04:58:32;2.25;;;1.25;;
20185;SDS011;10252;48.792;8.582;2023-02-01T05:03:33;1.85;;;1.30;;
20185;SDS011;10252;48.792;8.582;2023-02-01T05:08:35;2.67;;;1.77;;
20185;SDS011;10252;48.792;8.582;2023-02-01T05:13:36;3.20;;;1.55;;
20185;SDS011;10252;48.792;8.582;2023-02-01T05:18:49;3.22;;;1.25;;
20185;SDS011;10252;48.792;8.582;2023-02-01T05:23:50;3.03;;;1.60;;
20185;SDS011;10252;48.792;8.582;2023-02-01T05:29:10;2.85;;;1.55;;
20185;SDS011;10252;48.792;8.582;2023-02-01T05:34:11;1.75;;;1.63;;
20185;SDS011;10252;48.792;8.582;2023-02-01T05:39:12;1.48;;;1.30;;
20185;SDS011;10252;48.792;8.582;2023-02-01T05:44:13;3.67;;;1.83;;
20185;SDS011;10252;48.792;8.582;2023-02-01T05:49:14;4.38;;;2.42;;
20185;SDS011;10252;48.792;8.582;2023-02-01T05:54:15;4.38;;;2.55;;
20185;SDS011;10252;48.792;8.582;2023-02-01T05:59:17;3.35;;;2.42;;
20185;SDS011;10252;48.792;8.582;2023-02-01T06:04:18;7.97;;;3.10;;
20185;SDS011;10252;48.792;8.582;2023-02-01T06:09:19;4.35;;;2.85;;
20185;SDS011;10252;48.792;8.582;2023-02-01T06:14:20;5.47;;;3.83;;
20185;SDS011;10252;48.792;8.582;2023-02-01T06:19:21;7.78;;;3.20;;
20185;SDS011;10252;48.792;8.582;2023-02-01T06:24:23;6.35;;;3.70;;
20185;SDS011;10252;48.792;8.582;2023-02-01T06:29:24;7.90;;;3.72;;
20185;SDS011;10252;48.792;8.582;2023-02-01T06:34:26;7.13;;;4.03;;
20185;SDS011;10252;48.792;8.582;2023-02-01T06:39:27;8.70;;;3.78;;
20185;SDS011;10252;48.792;8.582;2023-02-01T06:44:28;5.05;;;4.05;;
20185;SDS011;10252;48.792;8.582;2023-02-01T06:49:29;9.45;;;4.03;;
20185;SDS011;10252;48.792;8.582;2023-02-01T06:54:31;5.55;;;3.30;;
20185;SDS011;10252;48.792;8.582;2023-02-01T06:59:33;4.78;;;3.83;;
20185;SDS011;10252;48.792;8.582;2023-02-01T07:04:34;9.70;;;3.95;;
20185;SDS011;10252;48.792;8.582;2023-02-01T07:09:35;8.38;;;4.18;;
20185;SDS011;10252;48.792;8.582;2023-02-01T07:14:36;7.78;;;3.47;;
20185;SDS011;10252;48.792;8.582;2023-02-01T07:19:37;7.25;;;3.22;;
20185;SDS011;10252;48.792;8.582;2023-02-01T07:24:38;6.28;;;3.88;;
20185;SDS011;10252;48.792;8.582;2023-02-01T07:29:39;10.98;;;3.83;;
20185;SDS011;10252;48.792;8.582;2023-02-01T07:34:40;13.48;;;3.90;;
20185;SDS011;10252;48.792;8.582;2023-02-01T07:39:42;11.38;;;3.67;;
20185;SDS011;10252;48.792;8.582;2023-02-01T07:44:43;9.95;;;3.28;;
20185;SDS011;10252;48.792;8.582;2023-02-01T07:49:44;8.95;;;3.53;;
20185;SDS011;10252;48.792;8.582;2023-02-01T07:54:45;5.93;;;2.78;;
20185;SDS011;10252;48.792;8.582;2023-02-01T07:59:46;8.95;;;3.00;;
20185;SDS011;10252;48.792;8.582;2023-02-01T08:05:12;6.15;;;2.70;;
20185;SDS011;10252;48.792;8.582;2023-02-01T08:10:13;8.63;;;3.17;;
20185;SDS011;10252;48.792;8.582;2023-02-01T08:15:15;6.28;;;3.03;;
20185;SDS011;10252;48.792;8.582;2023-02-01T08:20:21;6.50;;;3.08;;
20185;SDS011;10252;48.792;8.582;2023-02-01T08:25:25;10.75;;;3.00;;
20185;SDS011;10252;48.792;8.582;2023-02-01T08:30:29;6.13;;;2.72;;
20185;SDS011;10252;48.792;8.582;2023-02-01T08:41:07;6.30;;;2.80;;
20185;SDS011;10252;48.792;8.582;2023-02-01T08:46:11;11.43;;;3.72;;
20185;SDS011;10252;48.792;8.582;2023-02-01T08:51:12;9.13;;;3.08;;
20185;SDS011;10252;48.792;8.582;2023-02-01T08:56:15;8.73;;;2.38;;
20185;SDS011;10252;48.792;8.582;2023-02-01T09:01:16;12.20;;;5.18;;
20185;SDS011;10252;48.792;8.582;2023-02-01T09:06:18;8.52;;;3.25;;
20185;SDS011;10252;48.792;8.582;2023-02-01T09:11:19;11.00;;;4.10;;
20185;SDS011;10252;48.792;8.582;2023-02-01T09:16:20;12.52;;;4.43;;
20185;SDS011;10252;48.792;8.582;2023-02-01T09:21:21;8.82;;;3.20;;
20185;SDS011;10252;48.792;8.582;2023-02-01T09:26:22;10.27;;;2.33;;
20185;SDS011;10252;48.792;8.582;2023-02-01T09:31:23;10.85;;;2.58;;
20185;SDS011;10252;48.792;8.582;2023-02-01T09:36:24;7.40;;;2.90;;
20185;SDS011;10252;48.792;8.582;2023-02-01T09:46:42;7.28;;;3.08;;
20185;SDS011;10252;48.792;8.582;2023-02-01T09:51:44;7.07;;;2.67;;
20185;SDS011;10252;48.792;8.582;2023-02-01T09:56:47;11.20;;;2.78;;
20185;SDS011;10252;48.792;8.582;2023-02-01T10:01:50;10.35;;;3.28;;
20185;SDS011;10252;48.792;8.582;2023-02-01T10:17:28;10.43;;;2.90;;
20185;SDS011;10252;48.792;8.582;2023-02-01T10:22:45;9.68;;;3.55;;
20185;SDS011;10252;48.792;8.582;2023-02-01T10:27:46;11.05;;;2.97;;
20185;SDS011;10252;48.792;8.582;2023-02-01T10:32:58;13.02;;;2.88;;
20185;SDS011;10252;48.792;8.582;2023-02-01T10:38:02;9.05;;;3.03;;
20185;SDS011;10252;48.792;8.582;2023-02-01T10:43:04;12.13;;;2.60;;
20185;SDS011;10252;48.792;8.582;2023-02-01T10:48:05;10.20;;;2.45;;
20185;SDS011;10252;48.792;8.582;2023-02-01T10:53:52;8.15;;;2.88;;
20185;SDS011;10252;48.792;8.582;2023-02-01T10:58:32;5.07;;;1.83;;
20185;SDS011;10252;48.792;8.582;2023-02-01T11:03:37;5.55;;;2.17;;
20185;SDS011;10252;48.792;8.582;2023-02-01T11:08:58;12.98;;;3.42;;
20185;SDS011;10252;48.792;8.582;2023-02-01T11:14:02;10.77;;;2.53;;
20185;SDS011;10252;48.792;8.582;2023-02-01T11:19:09;8.45;;;2.45;;
20185;SDS011;10252;48.792;8.582;2023-02-01T11:24:19;11.55;;;2.35;;
20185;SDS011;10252;48.792;8.582;2023-02-01T11:29:22;8.25;;;1.80;;
20185;SDS011;10252;48.792;8.582;2023-02-01T11:34:37;6.55;;;2.20;;
20185;SDS011;10252;48.792;8.582;2023-02-01T11:39:39;11.15;;;2.47;;
20185;SDS011;10252;48.792;8.582;2023-02-01T11:44:41;9.13;;;2.47;;
20185;SDS011;10252;48.792;8.582;2023-02-01T11:49:42;7.72;;;2.33;;
20185;SDS011;10252;48.792;8.582;2023-02-01T12:05:05;4.53;;;2.03;;
20185;SDS011;10252;48.792;8.582;2023-02-01T12:15:21;10.63;;;2.75;;
20185;SDS011;10252;48.792;8.582;2023-02-01T12:20:28;7.97;;;2.72;;
20185;SDS011;10252;48.792;8.582;2023-02-01T12:30:44;9.25;;;2.83;;
20185;SDS011;10252;48.792;8.582;2023-02-01T12:35:49;18.60;;;3.80;;
20185;SDS011;10252;48.792;8.582;2023-02-01T12:46:11;9.18;;;2.28;;
20185;SDS011;10252;48.792;8.582;2023-02-01T12:51:14;9.05;;;2.83;;
20185;SDS011;10252;48.792;8.582;2023-02-01T12:56:18;7.07;;;2.20;;
20185;SDS011;10252;48.792;8.582;2023-02-01T13:01:25;8.80;;;2.40;;
20185;SDS011;10252;48.792;8.582;2023-02-01T13:06:32;10.70;;;2.65;;
20185;SDS011;10252;48.792;8.582;2023-02-01T13:11:37;15.95;;;3.42;;
20185;SDS011;10252;48.792;8.582;2023-02-01T13:16:40;11.65;;;2.90;;
20185;SDS011;10252;48.792;8.582;2023-02-01T13:21:43;10.15;;;2.63;;
20185;SDS011;10252;48.792;8.582;2023-02-01T13:26:46;10.60;;;2.35;;
20185;SDS011;10252;48.792;8.582;2023-02-01T13:42:27;11.45;;;3.70;;
20185;SDS011;10252;48.792;8.582;2023-02-01T13:47:30;13.88;;;3.10;;
20185;SDS011;10252;48.792;8.582;2023-02-01T13:52:35;10.48;;;2.72;;
20185;SDS011;10252;48.792;8.582;2023-02-01T13:57:37;10.40;;;2.70;;
20185;SDS011;10252;48.792;8.582;2023-02-01T14:13:12;9.57;;;2.20;;
20185;SDS011;10252;48.792;8.582;2023-02-01T14:28:56;12.05;;;2.70;;
20185;SDS011;10252;48.792;8.582;2023-02-01T14:33:58;15.23;;;3.90;;
20185;SDS011;10252;48.792;8.582;2023-02-01T14:38:59;13.55;;;3.15;;
20185;SDS011;10252;48.792;8.582;2023-02-01T14:49:02;11.20;;;2.65;;
20185;SDS011;10252;48.792;8.582;2023-02-01T14:54:03;12.43;;;2.75;;
20185;SDS011;10252;48.792;8.582;2023-02-01T14:59:08;13.75;;;3.53;;
20185;SDS011;10252;48.792;8.582;2023-02-01T15:04:13;16.83;;;6.68;;
20185;SDS011;10252;48.792;8.582;2023-02-01T15:14:19;7.90;;;2.45;;
20185;SDS011;10252;48.792;8.582;2023-02-01T15:19:24;7.97;;;2.38;;
20185;SDS011;10252;48.792;8.582;2023-02-01T15:24:29;5.95;;;3.22;;
20185;SDS011;10252;48.792;8.582;2023-02-01T15:29:31;10.95;;;2.83;;
20185;SDS011;10252;48.792;8.582;2023-02-01T15:34:45;10.00;;;2.95;;
20185;SDS011;10252;48.792;8.582;2023-02-01T15:45:18;10.43;;;2.70;;
20185;SDS011;10252;48.792;8.582;2023-02-01T15:50:19;15.35;;;2.83;;
20185;SDS011;10252;48.792;8.582;2023-02-01T15:55:33;7.68;;;2.30;;
20185;SDS011;10252;48.792;8.582;2023-02-01T16:00:45;10.90;;;2.40;;
20185;SDS011;10252;48.792;8.582;2023-02-01T16:05:53;11.30;;;2.80;;
20185;SDS011;10252;48.792;8.582;2023-02-01T16:10:59;7.78;;;3.17;;
20185;SDS011;10252;48.792;8.582;2023-02-01T16:16:02;10.43;;;2.55;;
20185;SDS011;10252;48.792;8.582;2023-02-01T16:21:07;18.00;;;3.67;;
20185;SDS011;10252;48.792;8.582;2023-02-01T16:26:09;11.20;;;4.03;;
20185;SDS011;10252;48.792;8.582;2023-02-01T16:31:12;7.30;;;2.05;;
20185;SDS011;10252;48.792;8.582;2023-02-01T16:36:19;10.63;;;2.50;;
20185;SDS011;10252;48.792;8.582;2023-02-01T16:41:21;10.38;;;2.58;;
20185;SDS011;10252;48.792;8.582;2023-02-01T16:46:24;14.05;;;3.00;;
20185;SDS011;10252;48.792;8.582;2023-02-01T16:51:27;6.82;;;2.40;;
20185;SDS011;10252;48.792;8.582;2023-02-01T16:56:29;10.10;;;2.67;;
20185;SDS011;10252;48.792;8.582;2023-02-01T17:01:31;11.27;;;2.45;;
20185;SDS011;10252;48.792;8.582;2023-02-01T17:06:32;9.50;;;2.58;;
20185;SDS011;10252;48.792;8.582;2023-02-01T17:11:33;12.10;;;2.60;;
20185;SDS011;10252;48.792;8.582;2023-02-01T17:16:34;11.93;;;3.17;;
20185;SDS011;10252;48.792;8.582;2023-02-01T17:21:43;14.52;;;3.17;;
20185;SDS011;10252;48.792;8.582;2023-02-01T17:26:44;12.30;;;3.10;;
20185;SDS011;10252;48.792;8.582;2023-02-01T17:31:51;11.65;;;3.28;;
20185;SDS011;10252;48.792;8.582;2023-02-01T17:36:53;16.02;;;4.90;;
20185;SDS011;10252;48.792;8.582;2023-02-01T17:41:55;9.32;;;2.30;;
20185;SDS011;10252;48.792;8.582;2023-02-01T17:46:56;9.65;;;2.65;;
20185;SDS011;10252;48.792;8.582;2023-02-01T17:51:58;7.88;;;2.83;;
20185;SDS011;10252;48.792;8.582;2023-02-01T17:56:59;10.20;;;2.70;;
20185;SDS011;10252;48.792;8.582;2023-02-01T18:02:02;9.30;;;2.53;;
20185;SDS011;10252;48.792;8.582;2023-02-01T18:07:03;13.95;;;4.35;;
20185;SDS011;10252;48.792;8.582;2023-02-01T18:12:04;22.90;;;9.32;;
20185;SDS011;10252;48.792;8.582;2023-02-01T18:17:07;10.43;;;2.70;;
20185;SDS011;10252;48.792;8.582;2023-02-01T18:22:18;16.23;;;3.08;;
20185;SDS011;10252;48.792;8.582;2023-02-01T18:27:19;10.32;;;3.92;;
20185;SDS011;10252;48.792;8.582;2023-02-01T18:32:20;15.25;;;5.78;;
20185;SDS011;10252;48.792;8.582;2023-02-01T18:37:21;10.30;;;2.70;;
20185;SDS011;10252;48.792;8.582;2023-02-01T18:42:22;9.90;;;2.00;;
20185;SDS011;10252;48.792;8.582;2023-02-01T18:47:23;10.15;;;2.75;;
20185;SDS011;10252;48.792;8.582;2023-02-01T18:52:24;14.45;;;2.95;;
20185;SDS011;10252;48.792;8.582;2023-02-01T18:57:25;6.18;;;1.92;;
20185;SDS011;10252;48.792;8.582;2023-02-01T19:02:26;11.98;;;2.45;;
20185;SDS011;10252;48.792;8.582;2023-02-01T19:07:27;6.03;;;2.80;;
20185;SDS011;10252;48.792;8.582;2023-02-01T19:12:29;8.73;;;2.97;;
20185;SDS011;10252;48.792;8.582;2023-02-01T19:17:30;13.93;;;3.03;;
20185;SDS011;10252;48.792;8.582;2023-02-01T19:22:31;4.68;;;1.80;;
20185;SDS011;10252;48.792;8.582;2023-02-01T19:27:32;12.05;;;2.78;;
20185;SDS011;10252;48.792;8.582;2023-02-01T19:32:33;11.20;;;2.90;;
20185;SDS011;10252;48.792;8.582;2023-02-01T19:37:34;8.70;;;2.38;;
20185;SDS011;10252;48.792;8.582;2023-02-01T19:42:35;8.80;;;2.75;;
20185;SDS011;10252;48.792;8.582;2023-02-01T19:47:36;10.88;;;3.20;;
20185;SDS011;10252;48.792;8.582;2023-02-01T19:52:37;12.80;;;2.97;;
20185;SDS011;10252;48.792;8.582;2023-02-01T19:57:39;11.75;;;3.22;;
20185;SDS011;10252;48.792;8.582;2023-02-01T20:02:40;7.40;;;3.50;;
20185;SDS011;10252;48.792;8.582;2023-02-01T20:07:41;20.58;;;6.70;;
20185;SDS011;10252;48.792;8.582;2023-02-01T20:12:42;12.20;;;4.25;;
20185;SDS011;10252;48.792;8.582;2023-02-01T20:17:47;10.82;;;3.55;;
20185;SDS011;10252;48.792;8.582;2023-02-01T20:22:48;14.15;;;3.13;;
20185;SDS011;10252;48.792;8.582;2023-02-01T20:27:49;8.13;;;2.13;;
20185;SDS011;10252;48.792;8.582;2023-02-01T20:32:51;15.07;;;3.03;;
20185;SDS011;10252;48.792;8.582;2023-02-01T20:37:52;12.52;;;4.72;;
20185;SDS011;10252;48.792;8.582;2023-02-01T20:42:53;10.25;;;2.33;;
20185;SDS011;10252;48.792;8.582;2023-02-01T20:47:56;11.05;;;3.05;;
20185;SDS011;10252;48.792;8.582;2023-02-01T20:52:57;12.50;;;2.92;;
20185;SDS011;10252;48.792;8.582;2023-02-01T20:57:58;9.88;;;2.78;;
20185;SDS011;10252;48.792;8.582;2023-02-01T21:02:59;9.25;;;2.95;;
20185;SDS011;10252;48.792;8.582;2023-02-01T21:08:00;14.77;;;4.45;;
20185;SDS011;10252;48.792;8.582;2023-02-01T21:13:01;14.27;;;3.22;;
20185;SDS011;10252;48.792;8.582;2023-02-01T21:18:03;15.50;;;2.92;;
20185;SDS011;10252;48.792;8.582;2023-02-01T21:23:04;14.23;;;5.05;;
20185;SDS011;10252;48.792;8.582;2023-02-01T21:28:05;9.70;;;2.88;;
20185;SDS011;10252;48.792;8.582;2023-02-01T21:33:07;14.70;;;3.85;;
20185;SDS011;10252;48.792;8.582;2023-02-01T21:38:08;7.35;;;2.65;;
20185;SDS011;10252;48.792;8.582;2023-02-01T21:43:09;10.82;;;3.08;;
20185;SDS011;10252;48.792;8.582;2023-02-01T21:48:10;10.40;;;2.70;;
20185;SDS011;10252;48.792;8.582;2023-02-01T21:53:11;10.85;;;3.10;;
20185;SDS011;10252;48.792;8.582;2023-02-01T21:58:12;10.52;;;2.47;;
20185;SDS011;10252;48.792;8.582;2023-02-01T22:03:13;12.45;;;3.38;;
20185;SDS011;10252;48.792;8.582;2023-02-01T22:08:14;14.07;;;2.80;;
20185;SDS011;10252;48.792;8.582;2023-02-01T22:13:15;9.90;;;3.00;;
20185;SDS011;10252;48.792;8.582;2023-02-01T22:18:16;14.63;;;3.47;;
20185;SDS011;10252;48.792;8.582;2023-02-01T22:23:18;13.93;;;4.25;;
20185;SDS011;10252;48.792;8.582;2023-02-01T22:28:19;13.13;;;3.45;;
20185;SDS011;10252;48.792;8.582;2023-02-01T22:33:20;18.95;;;6.15;;
20185;SDS011;10252;48.792;8.582;2023-02-01T22:38:22;10.52;;;3.50;;
20185;SDS011;10252;48.792;8.582;2023-02-01T22:43:24;11.05;;;2.47;;
20185;SDS011;10252;48.792;8.582;2023-02-01T22:48:25;9.60;;;2.97;;
20185;SDS011;10252;48.792;8.582;2023-02-01T22:53:27;8.25;;;2.58;;
20185;SDS011;10252;48.792;8.582;2023-02-01T22:58:28;13.15;;;2.47;;
20185;SDS011;10252;48.792;8.582;2023-02-01T23:03:29;8.55;;;2.97;;
20185;SDS011;10252;48.792;8.582;2023-02-01T23:08:30;12.20;;;2.33;;
20185;SDS011;10252;48.792;8.582;2023-02-01T23:13:33;10.35;;;2.40;;
20185;SDS011;10252;48.792;8.582;2023-02-01T23:18:34;9.38;;;2.42;;
20185;SDS011;10252;48.792;8.582;2023-02-01T23:23:35;10.27;;;2.78;;
20185;SDS011;10252;48.792;8.582;2023-02-01T23:28:36;12.23;;;5.30;;
20185;SDS011;10252;48.792;8.582;2023-02-01T23:33:38;13.75;;;3.15;;
20185;SDS011;10252;48.792;8.582;2023-02-01T23:38:39;12.25;;;3.97;;
20185;SDS011;10252;48.792;8.582;2023-02-01T23:43:40;11.05;;;2.67;;
20185;SDS011;10252;48.792;8.582;2023-02-01T23:49:00;7.55;;;2.78;;
20185;SDS011;10252;48.792;8.582;2023-02-01T23:54:02;12.93;;;3.45;;
20185;SDS011;10252;48.792;8.582;2023-02-01T23:59:05;10.35;;;3.28;;
